PKWA/KWA METAR and TAF weather

Enter ICAO airport designator
Station Type Date Time Source
PKWA METAR 2020/04/08 21:20 UTC NOAA

PKWA 082120Z AUTO 10012KT 10SM CLR 28/27 A2993 RMK AO2 T02810273


Station Type Date Time Source
PKWA Decoded METAR 2020/04/08 21:20 UTC NOAA

Kwajalein, Bucholz AAF, Kwajalein KMR ATOL Airport, Marshall Islands (PKWA) 08-43N 167-44E 2M
Apr 08, 2020 - 05:20 PM EDT / 2020.04.08 2120 UTC
Wind: from the E (100 degrees) at 14 MPH (12 KT):0
Visibility: 10 mile(s):0
Sky conditions: clear
Temperature: 82.6 F (28.1 C)
Dew Point: 81.1 F (27.3 C)
Relative Humidity: 95%
Pressure (altimeter): 29.93 in. Hg (1013 hPa)
ob: PKWA 082120Z AUTO 10012KT 10SM CLR 28/27 A2993 RMK AO2 T02810273
cycle: 21

Station Type Date Time Source
PKWA TAF 2020/04/08 19:57 UTC NOAA

TAF PKWA 081848Z 0819/0918 09011KT P6SM VCSH SCT020 SCT050 BKN080

Example: see airport list